sensor_id;sensor_type;location;lat;lon;timestamp;temperature;humidity
12370;DHT22;6249;52.128;9.986;2023-04-29T00:03:03;13.80;99.90
12370;DHT22;6249;52.128;9.986;2023-04-29T00:06:26;13.80;99.90
12370;DHT22;6249;52.128;9.986;2023-04-29T00:09:47;13.70;99.90
12370;DHT22;6249;52.128;9.986;2023-04-29T00:13:10;13.80;99.90
12370;DHT22;6249;52.128;9.986;2023-04-29T00:16:33;13.70;99.90
12370;DHT22;6249;52.128;9.986;2023-04-29T00:19:54;13.70;99.90
12370;DHT22;6249;52.128;9.986;2023-04-29T00:23:14;13.70;99.90
12370;DHT22;6249;52.128;9.986;2023-04-29T00:26:37;13.50;99.90
12370;DHT22;6249;52.128;9.986;2023-04-29T00:29:58;13.40;99.90
12370;DHT22;6249;52.128;9.986;2023-04-29T00:33:21;13.40;99.90
12370;DHT22;6249;52.128;9.986;2023-04-29T00:36:42;13.60;99.90
12370;DHT22;6249;52.128;9.986;2023-04-29T00:40:02;13.00;99.90
12370;DHT22;6249;52.128;9.986;2023-04-29T00:43:24;12.80;99.90
12370;DHT22;6249;52.128;9.986;2023-04-29T00:46:50;12.70;99.90
12370;DHT22;6249;52.128;9.986;2023-04-29T00:50:10;12.60;99.90
12370;DHT22;6249;52.128;9.986;2023-04-29T00:53:31;12.60;99.90
12370;DHT22;6249;52.128;9.986;2023-04-29T00:56:53;12.60;99.90
12370;DHT22;6249;52.128;9.986;2023-04-29T01:00:15;12.50;99.90
12370;DHT22;6249;52.128;9.986;2023-04-29T01:03:39;12.50;99.90
12370;DHT22;6249;52.128;9.986;2023-04-29T01:07:16;12.50;99.90
12370;DHT22;6249;52.128;9.986;2023-04-29T01:10:44;12.50;99.90
12370;DHT22;6249;52.128;9.986;2023-04-29T01:14:07;12.50;99.90
12370;DHT22;6249;52.128;9.986;2023-04-29T01:17:54;12.60;99.90
12370;DHT22;6249;52.128;9.986;2023-04-29T01:21:17;12.50;99.90
12370;DHT22;6249;52.128;9.986;2023-04-29T01:24:40;12.50;99.90
12370;DHT22;6249;52.128;9.986;2023-04-29T01:28:20;12.50;99.90
12370;DHT22;6249;52.128;9.986;2023-04-29T01:32:06;12.50;99.90
12370;DHT22;6249;52.128;9.986;2023-04-29T01:42:55;12.40;99.90
12370;DHT22;6249;52.128;9.986;2023-04-29T01:46:18;12.40;99.90
12370;DHT22;6249;52.128;9.986;2023-04-29T01:49:39;12.40;99.90
12370;DHT22;6249;52.128;9.986;2023-04-29T01:53:00;12.40;99.90
12370;DHT22;6249;52.128;9.986;2023-04-29T01:56:20;12.40;99.90
12370;DHT22;6249;52.128;9.986;2023-04-29T01:59:43;12.20;99.90
12370;DHT22;6249;52.128;9.986;2023-04-29T02:03:07;12.30;99.90
12370;DHT22;6249;52.128;9.986;2023-04-29T02:06:30;12.40;99.90
12370;DHT22;6249;52.128;9.986;2023-04-29T02:09:51;12.20;99.90
12370;DHT22;6249;52.128;9.986;2023-04-29T02:13:12;12.20;99.90
12370;DHT22;6249;52.128;9.986;2023-04-29T02:16:32;12.40;99.90
12370;DHT22;6249;52.128;9.986;2023-04-29T02:19:53;12.40;99.90
12370;DHT22;6249;52.128;9.986;2023-04-29T02:23:18;12.30;99.90
12370;DHT22;6249;52.128;9.986;2023-04-29T02:26:39;12.30;99.90
12370;DHT22;6249;52.128;9.986;2023-04-29T02:30:02;12.40;99.90
12370;DHT22;6249;52.128;9.986;2023-04-29T02:33:25;12.30;99.90
12370;DHT22;6249;52.128;9.986;2023-04-29T02:36:46;12.30;99.90
12370;DHT22;6249;52.128;9.986;2023-04-29T02:40:07;12.30;99.90
12370;DHT22;6249;52.128;9.986;2023-04-29T02:43:27;12.30;99.90
12370;DHT22;6249;52.128;9.986;2023-04-29T02:46:52;12.30;99.90
12370;DHT22;6249;52.128;9.986;2023-04-29T02:50:15;12.30;99.90
12370;DHT22;6249;52.128;9.986;2023-04-29T02:53:38;12.20;99.90
12370;DHT22;6249;52.128;9.986;2023-04-29T02:56:59;12.30;99.90
12370;DHT22;6249;52.128;9.986;2023-04-29T03:00:22;12.10;99.90
12370;DHT22;6249;52.128;9.986;2023-04-29T03:03:43;12.00;99.90
12370;DHT22;6249;52.128;9.986;2023-04-29T03:07:04;12.00;99.90
12370;DHT22;6249;52.128;9.986;2023-04-29T03:10:25;11.90;99.90
12370;DHT22;6249;52.128;9.986;2023-04-29T03:13:48;11.90;99.90
12370;DHT22;6249;52.128;9.986;2023-04-29T03:17:13;11.80;99.90
12370;DHT22;6249;52.128;9.986;2023-04-29T03:20:36;11.90;99.90
12370;DHT22;6249;52.128;9.986;2023-04-29T03:24:00;11.90;99.90
12370;DHT22;6249;52.128;9.986;2023-04-29T03:27:25;11.90;99.90
12370;DHT22;6249;52.128;9.986;2023-04-29T03:30:48;11.80;99.90
12370;DHT22;6249;52.128;9.986;2023-04-29T03:34:08;11.90;99.90
12370;DHT22;6249;52.128;9.986;2023-04-29T03:37:29;11.70;99.90
12370;DHT22;6249;52.128;9.986;2023-04-29T03:40:52;11.60;99.90
12370;DHT22;6249;52.128;9.986;2023-04-29T03:44:13;11.60;99.90
12370;DHT22;6249;52.128;9.986;2023-04-29T03:47:36;11.50;99.90
12370;DHT22;6249;52.128;9.986;2023-04-29T03:50:59;11.50;99.90
12370;DHT22;6249;52.128;9.986;2023-04-29T03:54:22;11.50;99.90
12370;DHT22;6249;52.128;9.986;2023-04-29T03:57:46;11.40;99.90
12370;DHT22;6249;52.128;9.986;2023-04-29T04:01:06;11.40;99.90
12370;DHT22;6249;52.128;9.986;2023-04-29T04:04:29;11.40;99.90
12370;DHT22;6249;52.128;9.986;2023-04-29T04:07:52;11.40;99.90
12370;DHT22;6249;52.128;9.986;2023-04-29T04:11:15;11.30;99.90
12370;DHT22;6249;52.128;9.986;2023-04-29T04:14:38;11.30;99.90
12370;DHT22;6249;52.128;9.986;2023-04-29T04:18:03;11.40;99.90
12370;DHT22;6249;52.128;9.986;2023-04-29T04:21:26;11.30;99.90
12370;DHT22;6249;52.128;9.986;2023-04-29T04:24:47;11.20;99.90
12370;DHT22;6249;52.128;9.986;2023-04-29T04:28:07;11.20;99.90
12370;DHT22;6249;52.128;9.986;2023-04-29T04:31:28;11.20;99.90
12370;DHT22;6249;52.128;9.986;2023-04-29T04:34:49;11.20;99.90
12370;DHT22;6249;52.128;9.986;2023-04-29T04:38:12;11.20;99.90
12370;DHT22;6249;52.128;9.986;2023-04-29T04:41:34;11.20;99.90
12370;DHT22;6249;52.128;9.986;2023-04-29T04:44:55;11.20;99.90
12370;DHT22;6249;52.128;9.986;2023-04-29T04:48:18;11.30;99.90
12370;DHT22;6249;52.128;9.986;2023-04-29T04:51:39;11.20;99.90
12370;DHT22;6249;52.128;9.986;2023-04-29T04:55:05;11.20;99.90
12370;DHT22;6249;52.128;9.986;2023-04-29T04:58:26;11.10;99.90
12370;DHT22;6249;52.128;9.986;2023-04-29T05:01:50;11.00;99.90
12370;DHT22;6249;52.128;9.986;2023-04-29T05:05:11;11.10;99.90
12370;DHT22;6249;52.128;9.986;2023-04-29T05:08:31;11.00;99.90
12370;DHT22;6249;52.128;9.986;2023-04-29T05:11:52;11.00;99.90
12370;DHT22;6249;52.128;9.986;2023-04-29T05:15:16;11.00;99.90
12370;DHT22;6249;52.128;9.986;2023-04-29T05:18:38;11.10;99.90
12370;DHT22;6249;52.128;9.986;2023-04-29T05:21:58;11.10;99.90
12370;DHT22;6249;52.128;9.986;2023-04-29T05:25:19;11.20;99.90
12370;DHT22;6249;52.128;9.986;2023-04-29T05:28:42;11.20;99.90
12370;DHT22;6249;52.128;9.986;2023-04-29T05:32:03;11.20;99.90
12370;DHT22;6249;52.128;9.986;2023-04-29T05:35:24;11.10;99.90
12370;DHT22;6249;52.128;9.986;2023-04-29T05:38:44;11.10;99.90
12370;DHT22;6249;52.128;9.986;2023-04-29T05:42:05;11.10;99.90
12370;DHT22;6249;52.128;9.986;2023-04-29T05:45:26;11.10;99.90
12370;DHT22;6249;52.128;9.986;2023-04-29T05:48:46;11.00;99.90
12370;DHT22;6249;52.128;9.986;2023-04-29T05:52:07;11.00;99.90
12370;DHT22;6249;52.128;9.986;2023-04-29T05:55:30;11.10;99.90
12370;DHT22;6249;52.128;9.986;2023-04-29T05:58:51;11.10;99.90
12370;DHT22;6249;52.128;9.986;2023-04-29T06:02:13;11.20;99.90
12370;DHT22;6249;52.128;9.986;2023-04-29T06:05:36;11.10;99.90
12370;DHT22;6249;52.128;9.986;2023-04-29T06:08:59;11.10;99.90
12370;DHT22;6249;52.128;9.986;2023-04-29T06:12:22;11.10;99.90
12370;DHT22;6249;52.128;9.986;2023-04-29T06:15:45;11.10;99.90
12370;DHT22;6249;52.128;9.986;2023-04-29T06:19:05;11.20;99.90
12370;DHT22;6249;52.128;9.986;2023-04-29T06:22:28;11.00;99.90
12370;DHT22;6249;52.128;9.986;2023-04-29T06:25:51;11.00;99.90
12370;DHT22;6249;52.128;9.986;2023-04-29T06:29:12;11.10;99.90
12370;DHT22;6249;52.128;9.986;2023-04-29T06:32:32;11.10;99.90
12370;DHT22;6249;52.128;9.986;2023-04-29T06:35:55;11.00;99.90
12370;DHT22;6249;52.128;9.986;2023-04-29T06:39:16;10.90;99.90
12370;DHT22;6249;52.128;9.986;2023-04-29T06:42:37;10.80;99.90
12370;DHT22;6249;52.128;9.986;2023-04-29T06:45:58;10.90;99.90
12370;DHT22;6249;52.128;9.986;2023-04-29T06:49:19;10.80;99.90
12370;DHT22;6249;52.128;9.986;2023-04-29T06:52:42;10.90;99.90
12370;DHT22;6249;52.128;9.986;2023-04-29T06:56:05;10.90;99.90
12370;DHT22;6249;52.128;9.986;2023-04-29T06:59:26;10.90;99.90
12370;DHT22;6249;52.128;9.986;2023-04-29T07:02:46;10.80;99.90
12370;DHT22;6249;52.128;9.986;2023-04-29T07:06:07;10.80;99.90
12370;DHT22;6249;52.128;9.986;2023-04-29T07:09:27;10.80;99.90
12370;DHT22;6249;52.128;9.986;2023-04-29T07:12:48;10.80;99.90
12370;DHT22;6249;52.128;9.986;2023-04-29T07:16:15;10.80;99.90
12370;DHT22;6249;52.128;9.986;2023-04-29T07:19:43;10.80;99.90
12370;DHT22;6249;52.128;9.986;2023-04-29T07:23:04;10.90;99.90
12370;DHT22;6249;52.128;9.986;2023-04-29T07:26:24;10.80;99.90
12370;DHT22;6249;52.128;9.986;2023-04-29T07:29:45;10.70;99.90
12370;DHT22;6249;52.128;9.986;2023-04-29T07:33:05;10.70;99.90
12370;DHT22;6249;52.128;9.986;2023-04-29T07:36:26;10.70;99.90
12370;DHT22;6249;52.128;9.986;2023-04-29T07:39:48;10.80;99.90
12370;DHT22;6249;52.128;9.986;2023-04-29T07:43:11;10.80;99.90
12370;DHT22;6249;52.128;9.986;2023-04-29T07:46:37;10.90;99.90
12370;DHT22;6249;52.128;9.986;2023-04-29T07:49:59;10.90;99.90
12370;DHT22;6249;52.128;9.986;2023-04-29T07:53:20;10.80;99.90
12370;DHT22;6249;52.128;9.986;2023-04-29T07:56:43;11.00;99.90
12370;DHT22;6249;52.128;9.986;2023-04-29T08:00:04;11.20;99.90
12370;DHT22;6249;52.128;9.986;2023-04-29T08:03:27;11.20;99.90
12370;DHT22;6249;52.128;9.986;2023-04-29T08:06:51;11.40;99.90
12370;DHT22;6249;52.128;9.986;2023-04-29T08:10:11;11.50;99.90
12370;DHT22;6249;52.128;9.986;2023-04-29T08:13:50;11.70;99.90
12370;DHT22;6249;52.128;9.986;2023-04-29T08:17:10;11.90;99.90
12370;DHT22;6249;52.128;9.986;2023-04-29T08:20:31;12.10;99.90
12370;DHT22;6249;52.128;9.986;2023-04-29T08:23:54;12.40;99.90
12370;DHT22;6249;52.128;9.986;2023-04-29T08:27:19;12.60;99.90
12370;DHT22;6249;52.128;9.986;2023-04-29T08:30:41;12.70;99.90
12370;DHT22;6249;52.128;9.986;2023-04-29T08:34:01;12.60;99.90
12370;DHT22;6249;52.128;9.986;2023-04-29T08:37:26;12.60;99.90
12370;DHT22;6249;52.128;9.986;2023-04-29T08:40:49;12.70;99.90
12370;DHT22;6249;52.128;9.986;2023-04-29T08:44:12;12.90;99.90
12370;DHT22;6249;52.128;9.986;2023-04-29T08:47:33;13.00;99.90
12370;DHT22;6249;52.128;9.986;2023-04-29T08:50:57;13.10;99.90
12370;DHT22;6249;52.128;9.986;2023-04-29T08:54:21;13.30;99.90
12370;DHT22;6249;52.128;9.986;2023-04-29T08:57:42;13.70;99.90
12370;DHT22;6249;52.128;9.986;2023-04-29T09:01:07;13.90;99.90
12370;DHT22;6249;52.128;9.986;2023-04-29T09:04:47;14.30;99.90
12370;DHT22;6249;52.128;9.986;2023-04-29T09:08:12;14.70;99.90
12370;DHT22;6249;52.128;9.986;2023-04-29T09:11:36;14.90;99.90
12370;DHT22;6249;52.128;9.986;2023-04-29T09:14:57;15.00;99.90
12370;DHT22;6249;52.128;9.986;2023-04-29T09:18:40;15.20;99.90
12370;DHT22;6249;52.128;9.986;2023-04-29T09:22:04;15.30;99.90
12370;DHT22;6249;52.128;9.986;2023-04-29T09:25:28;15.70;99.90
12370;DHT22;6249;52.128;9.986;2023-04-29T09:29:08;16.20;99.90
12370;DHT22;6249;52.128;9.986;2023-04-29T09:32:29;17.00;99.90
12370;DHT22;6249;52.128;9.986;2023-04-29T09:35:50;17.10;99.90
12370;DHT22;6249;52.128;9.986;2023-04-29T09:39:21;17.10;99.90
12370;DHT22;6249;52.128;9.986;2023-04-29T09:42:44;17.00;99.90
12370;DHT22;6249;52.128;9.986;2023-04-29T09:46:11;17.00;99.90
12370;DHT22;6249;52.128;9.986;2023-04-29T09:49:34;17.00;99.90
12370;DHT22;6249;52.128;9.986;2023-04-29T09:52:59;17.00;99.90
12370;DHT22;6249;52.128;9.986;2023-04-29T09:56:22;16.90;99.90
12370;DHT22;6249;52.128;9.986;2023-04-29T09:59:43;16.90;99.90
12370;DHT22;6249;52.128;9.986;2023-04-29T10:03:07;16.80;99.90
12370;DHT22;6249;52.128;9.986;2023-04-29T10:06:28;16.90;99.90
12370;DHT22;6249;52.128;9.986;2023-04-29T10:09:50;17.50;99.90
12370;DHT22;6249;52.128;9.986;2023-04-29T10:13:11;16.90;99.90
12370;DHT22;6249;52.128;9.986;2023-04-29T10:16:41;17.00;99.90
12370;DHT22;6249;52.128;9.986;2023-04-29T10:20:07;17.10;99.90
12370;DHT22;6249;52.128;9.986;2023-04-29T10:23:29;17.00;99.90
12370;DHT22;6249;52.128;9.986;2023-04-29T10:26:51;16.90;99.90
12370;DHT22;6249;52.128;9.986;2023-04-29T10:30:16;17.00;99.90
12370;DHT22;6249;52.128;9.986;2023-04-29T10:33:39;17.20;99.90
12370;DHT22;6249;52.128;9.986;2023-04-29T10:37:08;17.50;99.90
12370;DHT22;6249;52.128;9.986;2023-04-29T10:40:35;18.00;99.90
12370;DHT22;6249;52.128;9.986;2023-04-29T10:43:59;18.30;99.90
12370;DHT22;6249;52.128;9.986;2023-04-29T10:47:20;18.40;99.90
12370;DHT22;6249;52.128;9.986;2023-04-29T10:54:20;17.60;99.90
12370;DHT22;6249;52.128;9.986;2023-04-29T10:57:47;17.50;99.90
12370;DHT22;6249;52.128;9.986;2023-04-29T11:01:16;17.30;99.90
12370;DHT22;6249;52.128;9.986;2023-04-29T11:05:09;17.00;99.90
12370;DHT22;6249;52.128;9.986;2023-04-29T11:08:30;16.50;99.90
12370;DHT22;6249;52.128;9.986;2023-04-29T11:12:00;16.20;99.90
12370;DHT22;6249;52.128;9.986;2023-04-29T11:15:22;16.20;99.90
12370;DHT22;6249;52.128;9.986;2023-04-29T11:25:47;15.80;99.90
12370;DHT22;6249;52.128;9.986;2023-04-29T11:29:12;15.70;99.90
12370;DHT22;6249;52.128;9.986;2023-04-29T11:32:37;15.70;99.90
12370;DHT22;6249;52.128;9.986;2023-04-29T11:35:59;15.90;99.90
12370;DHT22;6249;52.128;9.986;2023-04-29T11:39:20;16.20;99.90
12370;DHT22;6249;52.128;9.986;2023-04-29T11:42:44;16.80;99.90
12370;DHT22;6249;52.128;9.986;2023-04-29T11:46:11;17.40;99.90
12370;DHT22;6249;52.128;9.986;2023-04-29T11:49:33;17.80;99.90
12370;DHT22;6249;52.128;9.986;2023-04-29T11:52:56;18.30;99.90
12370;DHT22;6249;52.128;9.986;2023-04-29T11:56:20;18.70;99.00
12370;DHT22;6249;52.128;9.986;2023-04-29T11:59:43;18.70;99.10
12370;DHT22;6249;52.128;9.986;2023-04-29T12:03:20;18.20;99.70
12370;DHT22;6249;52.128;9.986;2023-04-29T12:06:41;18.00;98.30
12370;DHT22;6249;52.128;9.986;2023-04-29T12:10:02;17.40;98.50
12370;DHT22;6249;52.128;9.986;2023-04-29T12:13:30;17.00;99.20
12370;DHT22;6249;52.128;9.986;2023-04-29T12:16:50;16.80;99.50
12370;DHT22;6249;52.128;9.986;2023-04-29T12:20:14;16.50;99.90
12370;DHT22;6249;52.128;9.986;2023-04-29T12:23:35;16.50;99.90
12370;DHT22;6249;52.128;9.986;2023-04-29T12:26:56;16.60;99.90
12370;DHT22;6249;52.128;9.986;2023-04-29T12:30:19;16.60;99.90
12370;DHT22;6249;52.128;9.986;2023-04-29T12:33:43;16.70;99.90
12370;DHT22;6249;52.128;9.986;2023-04-29T12:37:04;16.70;99.20
12370;DHT22;6249;52.128;9.986;2023-04-29T12:40:27;16.80;99.30
12370;DHT22;6249;52.128;9.986;2023-04-29T12:43:51;16.70;99.90
12370;DHT22;6249;52.128;9.986;2023-04-29T12:47:16;16.90;99.90
12370;DHT22;6249;52.128;9.986;2023-04-29T12:50:42;17.10;99.90
12370;DHT22;6249;52.128;9.986;2023-04-29T12:54:08;17.30;98.20
12370;DHT22;6249;52.128;9.986;2023-04-29T12:57:31;17.30;97.80
12370;DHT22;6249;52.128;9.986;2023-04-29T13:00:52;17.30;98.40
12370;DHT22;6249;52.128;9.986;2023-04-29T13:04:12;17.40;98.10
12370;DHT22;6249;52.128;9.986;2023-04-29T13:07:33;17.40;97.90
12370;DHT22;6249;52.128;9.986;2023-04-29T13:10:56;17.40;97.60
12370;DHT22;6249;52.128;9.986;2023-04-29T13:14:17;17.40;98.90
12370;DHT22;6249;52.128;9.986;2023-04-29T13:17:38;17.50;98.00
12370;DHT22;6249;52.128;9.986;2023-04-29T13:21:03;17.60;97.50
12370;DHT22;6249;52.128;9.986;2023-04-29T13:24:24;17.70;98.10
12370;DHT22;6249;52.128;9.986;2023-04-29T13:27:45;17.70;97.60
12370;DHT22;6249;52.128;9.986;2023-04-29T13:31:08;17.60;97.20
12370;DHT22;6249;52.128;9.986;2023-04-29T13:34:31;17.30;97.70
12370;DHT22;6249;52.128;9.986;2023-04-29T13:37:54;17.20;96.90
12370;DHT22;6249;52.128;9.986;2023-04-29T13:41:17;16.80;97.80
12370;DHT22;6249;52.128;9.986;2023-04-29T13:44:38;16.70;98.80
12370;DHT22;6249;52.128;9.986;2023-04-29T13:48:03;16.70;99.90
12370;DHT22;6249;52.128;9.986;2023-04-29T13:51:24;16.70;99.00
12370;DHT22;6249;52.128;9.986;2023-04-29T13:54:47;16.60;98.90
12370;DHT22;6249;52.128;9.986;2023-04-29T13:58:07;16.50;99.30
12370;DHT22;6249;52.128;9.986;2023-04-29T14:01:28;16.50;99.90
12370;DHT22;6249;52.128;9.986;2023-04-29T14:04:50;16.30;99.90
12370;DHT22;6249;52.128;9.986;2023-04-29T14:08:11;16.20;99.90
12370;DHT22;6249;52.128;9.986;2023-04-29T14:11:35;16.10;99.90
12370;DHT22;6249;52.128;9.986;2023-04-29T14:14:55;16.00;99.90
12370;DHT22;6249;52.128;9.986;2023-04-29T14:18:16;15.80;99.90
12370;DHT22;6249;52.128;9.986;2023-04-29T14:21:37;15.60;99.90
12370;DHT22;6249;52.128;9.986;2023-04-29T14:24:58;15.50;99.90
12370;DHT22;6249;52.128;9.986;2023-04-29T14:28:18;15.50;99.90
12370;DHT22;6249;52.128;9.986;2023-04-29T14:31:39;15.60;99.90
12370;DHT22;6249;52.128;9.986;2023-04-29T14:34:59;15.50;99.90
12370;DHT22;6249;52.128;9.986;2023-04-29T14:38:20;15.50;99.90
12370;DHT22;6249;52.128;9.986;2023-04-29T14:41:41;15.40;99.90
12370;DHT22;6249;52.128;9.986;2023-04-29T14:45:02;15.40;99.90
12370;DHT22;6249;52.128;9.986;2023-04-29T14:48:25;15.50;99.90
12370;DHT22;6249;52.128;9.986;2023-04-29T14:51:50;15.50;99.90
12370;DHT22;6249;52.128;9.986;2023-04-29T14:55:13;15.60;99.90
12370;DHT22;6249;52.128;9.986;2023-04-29T14:58:34;15.60;99.90
12370;DHT22;6249;52.128;9.986;2023-04-29T15:01:55;15.70;99.90
12370;DHT22;6249;52.128;9.986;2023-04-29T15:05:18;16.00;99.90
12370;DHT22;6249;52.128;9.986;2023-04-29T15:08:39;16.00;99.90
12370;DHT22;6249;52.128;9.986;2023-04-29T15:12:02;16.00;99.90
12370;DHT22;6249;52.128;9.986;2023-04-29T15:15:26;15.90;99.90
12370;DHT22;6249;52.128;9.986;2023-04-29T15:18:49;15.90;99.90
12370;DHT22;6249;52.128;9.986;2023-04-29T15:22:10;15.90;99.90
12370;DHT22;6249;52.128;9.986;2023-04-29T15:25:31;15.80;99.90
12370;DHT22;6249;52.128;9.986;2023-04-29T15:28:53;15.90;99.90
12370;DHT22;6249;52.128;9.986;2023-04-29T15:32:14;15.90;99.90
12370;DHT22;6249;52.128;9.986;2023-04-29T15:35:34;15.90;99.90
12370;DHT22;6249;52.128;9.986;2023-04-29T15:38:56;15.90;99.80
12370;DHT22;6249;52.128;9.986;2023-04-29T15:42:16;15.80;99.90
12370;DHT22;6249;52.128;9.986;2023-04-29T15:45:37;15.80;99.90
12370;DHT22;6249;52.128;9.986;2023-04-29T15:49:00;15.80;99.90
12370;DHT22;6249;52.128;9.986;2023-04-29T15:52:24;15.80;99.90
12370;DHT22;6249;52.128;9.986;2023-04-29T15:55:44;15.90;99.90
12370;DHT22;6249;52.128;9.986;2023-04-29T15:59:05;15.90;99.90
12370;DHT22;6249;52.128;9.986;2023-04-29T16:02:25;16.00;99.90
12370;DHT22;6249;52.128;9.986;2023-04-29T16:05:49;16.10;99.90
12370;DHT22;6249;52.128;9.986;2023-04-29T16:09:12;16.00;99.90
12370;DHT22;6249;52.128;9.986;2023-04-29T16:12:33;16.00;99.90
12370;DHT22;6249;52.128;9.986;2023-04-29T16:15:54;16.00;99.90
12370;DHT22;6249;52.128;9.986;2023-04-29T16:19:19;15.90;99.90
12370;DHT22;6249;52.128;9.986;2023-04-29T16:22:40;15.80;99.90
12370;DHT22;6249;52.128;9.986;2023-04-29T16:26:00;15.70;99.90
12370;DHT22;6249;52.128;9.986;2023-04-29T16:29:21;15.70;99.90
12370;DHT22;6249;52.128;9.986;2023-04-29T16:32:47;15.70;99.90
12370;DHT22;6249;52.128;9.986;2023-04-29T16:36:07;15.90;99.90
12370;DHT22;6249;52.128;9.986;2023-04-29T16:39:28;15.90;99.90
12370;DHT22;6249;52.128;9.986;2023-04-29T16:42:51;15.80;99.90
12370;DHT22;6249;52.128;9.986;2023-04-29T16:46:15;15.80;99.90
12370;DHT22;6249;52.128;9.986;2023-04-29T16:49:35;15.90;99.90
12370;DHT22;6249;52.128;9.986;2023-04-29T16:52:56;15.90;99.90
12370;DHT22;6249;52.128;9.986;2023-04-29T16:56:16;15.70;99.90
12370;DHT22;6249;52.128;9.986;2023-04-29T16:59:37;15.70;99.90
12370;DHT22;6249;52.128;9.986;2023-04-29T17:03:00;15.40;99.90
12370;DHT22;6249;52.128;9.986;2023-04-29T17:06:23;15.30;99.90
12370;DHT22;6249;52.128;9.986;2023-04-29T17:09:45;15.20;99.90
12370;DHT22;6249;52.128;9.986;2023-04-29T17:13:08;15.10;99.90
12370;DHT22;6249;52.128;9.986;2023-04-29T17:16:34;15.00;99.90
12370;DHT22;6249;52.128;9.986;2023-04-29T17:19:57;14.90;99.90
12370;DHT22;6249;52.128;9.986;2023-04-29T17:23:17;14.80;99.90
12370;DHT22;6249;52.128;9.986;2023-04-29T17:26:38;14.70;99.90
12370;DHT22;6249;52.128;9.986;2023-04-29T17:30:01;14.70;99.90
12370;DHT22;6249;52.128;9.986;2023-04-29T17:33:24;14.70;99.90
12370;DHT22;6249;52.128;9.986;2023-04-29T17:36:53;14.90;99.90
12370;DHT22;6249;52.128;9.986;2023-04-29T17:40:16;14.90;99.90
12370;DHT22;6249;52.128;9.986;2023-04-29T17:43:39;14.90;99.90
12370;DHT22;6249;52.128;9.986;2023-04-29T17:47:02;14.90;99.90
12370;DHT22;6249;52.128;9.986;2023-04-29T17:50:25;14.90;99.90
12370;DHT22;6249;52.128;9.986;2023-04-29T17:53:46;15.00;99.90
12370;DHT22;6249;52.128;9.986;2023-04-29T17:57:07;15.00;99.90
12370;DHT22;6249;52.128;9.986;2023-04-29T18:00:28;14.90;99.90
12370;DHT22;6249;52.128;9.986;2023-04-29T18:03:51;14.80;99.90
12370;DHT22;6249;52.128;9.986;2023-04-29T18:07:12;14.80;99.90
12370;DHT22;6249;52.128;9.986;2023-04-29T18:10:32;14.60;99.90
12370;DHT22;6249;52.128;9.986;2023-04-29T18:13:55;14.50;99.90
12370;DHT22;6249;52.128;9.986;2023-04-29T18:17:16;14.40;99.90
12370;DHT22;6249;52.128;9.986;2023-04-29T18:20:37;14.30;99.70
12370;DHT22;6249;52.128;9.986;2023-04-29T18:24:03;14.10;99.90
12370;DHT22;6249;52.128;9.986;2023-04-29T18:27:24;13.80;99.90
12370;DHT22;6249;52.128;9.986;2023-04-29T18:30:46;13.70;99.90
12370;DHT22;6249;52.128;9.986;2023-04-29T18:34:09;13.60;99.90
12370;DHT22;6249;52.128;9.986;2023-04-29T18:37:30;13.40;99.90
12370;DHT22;6249;52.128;9.986;2023-04-29T18:40:50;13.30;99.90
12370;DHT22;6249;52.128;9.986;2023-04-29T18:44:11;13.10;99.90
12370;DHT22;6249;52.128;9.986;2023-04-29T18:47:32;13.10;99.90
12370;DHT22;6249;52.128;9.986;2023-04-29T18:50:56;13.00;99.90
12370;DHT22;6249;52.128;9.986;2023-04-29T18:54:25;12.80;99.90
12370;DHT22;6249;52.128;9.986;2023-04-29T18:57:46;12.70;99.90
12370;DHT22;6249;52.128;9.986;2023-04-29T19:01:06;12.60;99.90
12370;DHT22;6249;52.128;9.986;2023-04-29T19:04:27;12.40;99.90
12370;DHT22;6249;52.128;9.986;2023-04-29T19:07:50;12.30;99.90
12370;DHT22;6249;52.128;9.986;2023-04-29T19:11:10;12.30;99.90
12370;DHT22;6249;52.128;9.986;2023-04-29T19:14:31;12.10;99.90
12370;DHT22;6249;52.128;9.986;2023-04-29T19:17:55;12.00;99.90
12370;DHT22;6249;52.128;9.986;2023-04-29T19:21:16;12.00;99.90
12370;DHT22;6249;52.128;9.986;2023-04-29T19:24:37;11.80;99.90
12370;DHT22;6249;52.128;9.986;2023-04-29T19:28:01;11.70;99.90
12370;DHT22;6249;52.128;9.986;2023-04-29T19:31:21;11.70;99.90
12370;DHT22;6249;52.128;9.986;2023-04-29T19:34:44;11.50;99.90
12370;DHT22;6249;52.128;9.986;2023-04-29T19:38:07;11.40;99.90
12370;DHT22;6249;52.128;9.986;2023-04-29T19:41:30;11.40;99.90
12370;DHT22;6249;52.128;9.986;2023-04-29T19:44:51;11.30;99.90
12370;DHT22;6249;52.128;9.986;2023-04-29T19:48:12;11.20;99.90
12370;DHT22;6249;52.128;9.986;2023-04-29T19:51:35;11.20;99.90
12370;DHT22;6249;52.128;9.986;2023-04-29T19:54:56;11.10;99.90
12370;DHT22;6249;52.128;9.986;2023-04-29T19:58:16;11.00;99.90
12370;DHT22;6249;52.128;9.986;2023-04-29T20:01:37;10.90;99.90
12370;DHT22;6249;52.128;9.986;2023-04-29T20:04:58;10.90;99.90
12370;DHT22;6249;52.128;9.986;2023-04-29T20:08:23;10.90;99.90
12370;DHT22;6249;52.128;9.986;2023-04-29T20:11:49;10.80;99.90
12370;DHT22;6249;52.128;9.986;2023-04-29T20:15:09;10.70;99.90
12370;DHT22;6249;52.128;9.986;2023-04-29T20:18:31;10.60;99.90
12370;DHT22;6249;52.128;9.986;2023-04-29T20:21:54;10.60;99.90
12370;DHT22;6249;52.128;9.986;2023-04-29T20:25:14;10.50;99.90
12370;DHT22;6249;52.128;9.986;2023-04-29T20:28:37;10.40;99.90
12370;DHT22;6249;52.128;9.986;2023-04-29T20:32:00;10.30;99.90
12370;DHT22;6249;52.128;9.986;2023-04-29T20:35:22;10.30;99.90
12370;DHT22;6249;52.128;9.986;2023-04-29T20:38:42;10.20;99.90
12370;DHT22;6249;52.128;9.986;2023-04-29T20:42:03;10.20;99.90
12370;DHT22;6249;52.128;9.986;2023-04-29T20:45:24;10.10;99.90
12370;DHT22;6249;52.128;9.986;2023-04-29T20:48:47;10.00;99.90
12370;DHT22;6249;52.128;9.986;2023-04-29T20:52:10;10.00;99.90
12370;DHT22;6249;52.128;9.986;2023-04-29T20:55:33;9.90;99.90
12370;DHT22;6249;52.128;9.986;2023-04-29T20:58:54;9.90;99.90
12370;DHT22;6249;52.128;9.986;2023-04-29T21:02:17;9.90;99.90
12370;DHT22;6249;52.128;9.986;2023-04-29T21:05:38;9.80;99.90
12370;DHT22;6249;52.128;9.986;2023-04-29T21:09:01;9.70;99.90
12370;DHT22;6249;52.128;9.986;2023-04-29T21:12:22;9.60;99.90
12370;DHT22;6249;52.128;9.986;2023-04-29T21:15:44;9.60;99.90
12370;DHT22;6249;52.128;9.986;2023-04-29T21:19:05;9.50;99.90
12370;DHT22;6249;52.128;9.986;2023-04-29T21:22:28;9.50;99.90
12370;DHT22;6249;52.128;9.986;2023-04-29T21:25:49;9.40;99.90
12370;DHT22;6249;52.128;9.986;2023-04-29T21:29:09;9.40;99.90
12370;DHT22;6249;52.128;9.986;2023-04-29T21:32:30;9.30;99.90
12370;DHT22;6249;52.128;9.986;2023-04-29T21:35:52;9.20;99.90
12370;DHT22;6249;52.128;9.986;2023-04-29T21:39:15;9.00;99.90
12370;DHT22;6249;52.128;9.986;2023-04-29T21:42:36;8.90;99.90
12370;DHT22;6249;52.128;9.986;2023-04-29T21:45:57;8.90;99.90
12370;DHT22;6249;52.128;9.986;2023-04-29T21:49:20;8.80;99.90
12370;DHT22;6249;52.128;9.986;2023-04-29T21:52:41;8.70;99.90
12370;DHT22;6249;52.128;9.986;2023-04-29T21:56:04;8.70;99.90
12370;DHT22;6249;52.128;9.986;2023-04-29T21:59:26;8.60;99.90
12370;DHT22;6249;52.128;9.986;2023-04-29T22:02:52;8.50;99.90